Time;durP1;ratioP1;P1;durP2;ratioP2;P2;SDS_P1;SDS_P2;PMS_P1;PMS_P2;Temp;Humidity;BMP_temperature;BMP_pressure;BME280_temperature;BME280_humidity;BME280_pressure;Samples;Min_cycle;Max_cycle;Signal;HPM_P1;HPM_P2
2023/02/13 00:04:34;;;;;;;4.22;3.38;;;19.60;64.50;;;;;;10427824;28;20136;-25
2023/02/13 00:09:37;;;;;;;;;;;19.60;64.30;;;;;;10434135;28;20069;-25
2023/02/13 00:14:40;;;;;;;5.38;3.38;;;19.60;64.50;;;;;;10434795;28;20003;-25
2023/02/13 00:19:41;;;;;;;;;;;19.60;64.40;;;;;;10431359;28;20653;-25
2023/02/13 00:24:45;;;;;;;4.38;3.58;;;19.60;64.50;;;;;;10425574;28;19920;-23
2023/02/13 00:29:47;;;;;;;4.05;3.05;;;19.60;64.30;;;;;;10420480;28;20049;-23
2023/02/13 00:34:49;;;;;;;5.22;3.67;;;19.60;64.30;;;;;;10434526;28;20053;-23
2023/02/13 00:39:53;;;;;;;4.25;3.15;;;19.60;64.40;;;;;;10439471;28;20123;-26
2023/02/13 00:44:54;;;;;;;6.88;3.53;;;19.60;64.20;;;;;;10431917;28;20128;-24
2023/02/13 00:49:56;;;;;;;4.88;3.65;;;19.60;64.10;;;;;;10432196;28;20053;-24
2023/02/13 00:55:00;;;;;;;5.68;3.92;;;19.60;64.10;;;;;;10437486;28;20142;-23
2023/02/13 01:00:02;;;;;;;5.38;3.38;;;19.50;64.30;;;;;;10416740;28;20099;-23
2023/02/13 01:05:04;;;;;;;;;;;19.50;64.10;;;;;;10432380;28;20081;-24
2023/02/13 01:10:07;;;;;;;7.90;4.50;;;19.50;64.10;;;;;;10429544;28;20086;-24
2023/02/13 01:15:10;;;;;;;3.92;3.10;;;19.50;64.10;;;;;;10426973;28;20052;-22
2023/02/13 01:20:13;;;;;;;5.18;3.60;;;19.50;64.20;;;;;;10425967;28;20103;-23
2023/02/13 01:25:17;;;;;;;5.85;3.22;;;19.40;64.00;;;;;;10433559;28;20142;-23
2023/02/13 01:30:19;;;;;;;6.25;3.42;;;19.40;64.00;;;;;;10425228;28;20114;-24
2023/02/13 01:35:21;;;;;;;3.60;3.10;;;19.50;64.10;;;;;;10423675;28;20076;-24
2023/02/13 01:40:28;;;;;;;3.72;3.03;;;19.40;64.10;;;;;;10426713;28;20127;-24
2023/02/13 01:45:31;;;;;;;3.53;2.97;;;19.40;64.00;;;;;;10431055;28;20529;-24
2023/02/13 01:50:36;;;;;;;4.18;3.13;;;19.40;64.00;;;;;;10417661;28;20068;-24
2023/02/13 01:55:47;;;;;;;6.47;3.40;;;19.40;64.10;;;;;;10434312;28;20049;-24
2023/02/13 02:00:49;;;;;;;5.33;3.50;;;19.40;64.10;;;;;;10423259;28;20045;-24
2023/02/13 02:05:55;;;;;;;4.85;3.47;;;19.40;64.10;;;;;;10422408;28;20509;-23
2023/02/13 02:11:03;;;;;;;3.90;3.22;;;19.30;64.00;;;;;;10423879;28;20045;-23
2023/02/13 02:16:05;;;;;;;4.10;3.28;;;19.30;63.90;;;;;;10432280;28;20532;-25
2023/02/13 02:21:37;;;;;;;3.65;3.17;;;19.30;64.10;;;;;;10419385;28;20148;-25
2023/02/13 02:26:57;;;;;;;4.15;3.40;;;19.30;64.00;;;;;;10422560;28;20056;-24
2023/02/13 02:32:30;;;;;;;4.18;3.10;;;19.30;64.00;;;;;;10429260;28;20413;-24
2023/02/13 02:37:47;;;;;;;3.90;2.83;;;19.30;63.90;;;;;;10422002;28;20406;-23
2023/02/13 02:43:00;;;;;;;5.38;3.75;;;19.30;63.90;;;;;;10416325;28;20045;-24
2023/02/13 02:53:38;;;;;;;6.45;3.78;;;19.30;64.00;;;;;;10427593;28;20061;-23
2023/02/13 03:14:49;;;;;;;4.32;3.35;;;19.20;64.00;;;;;;10414097;28;20064;-23
2023/02/13 03:25:33;;;;;;;4.88;3.28;;;19.20;63.90;;;;;;10419076;28;20373;-23
2023/02/13 03:30:46;;;;;;;3.75;3.05;;;19.20;64.00;;;;;;10437159;28;20037;-24
2023/02/13 03:41:21;;;;;;;5.25;3.20;;;19.20;64.00;;;;;;10432946;28;20052;-24
2023/02/13 03:46:25;;;;;;;3.38;2.85;;;19.20;63.90;;;;;;10445402;28;20041;-25
2023/02/13 03:51:33;;;;;;;5.70;3.15;;;19.10;63.90;;;;;;10436125;28;20063;-23
2023/02/13 04:02:03;;;;;;;3.83;2.95;;;19.10;63.90;;;;;;10433057;28;20405;-23
2023/02/13 04:07:09;;;;;;;2.88;2.45;;;19.10;63.80;;;;;;10430368;28;20107;-23
2023/02/13 04:12:18;;;;;;;4.03;3.28;;;19.10;63.70;;;;;;10437308;28;20063;-25
2023/02/13 04:17:26;;;;;;;3.92;2.92;;;19.10;63.70;;;;;;10439132;28;20095;-25
2023/02/13 04:22:29;;;;;;;4.00;2.92;;;19.10;63.80;;;;;;10444912;28;20466;-24
2023/02/13 04:27:32;;;;;;;4.32;3.10;;;19.00;63.90;;;;;;10433057;28;20153;-23
2023/02/13 04:32:34;;;;;;;3.42;2.92;;;19.10;63.90;;;;;;10438126;28;20045;-23
2023/02/13 04:37:37;;;;;;;4.77;3.07;;;19.10;64.00;;;;;;10429929;28;20076;-23
2023/02/13 04:42:39;;;;;;;3.40;2.90;;;19.10;63.80;;;;;;10427913;28;20059;-24
2023/02/13 04:47:41;;;;;;;4.20;3.13;;;19.00;63.80;;;;;;10438455;28;20085;-25
2023/02/13 04:52:44;;;;;;;3.03;2.72;;;19.10;63.70;;;;;;10440787;28;20080;-24
2023/02/13 04:57:47;;;;;;;4.80;2.83;;;19.10;63.80;;;;;;10439260;28;20487;-27
2023/02/13 05:02:48;;;;;;;4.10;3.42;;;19.00;63.80;;;;;;10438662;28;20110;-24
2023/02/13 05:07:52;;;;;;;4.55;3.30;;;19.00;63.60;;;;;;10437423;28;20076;-24
2023/02/13 05:12:53;;;;;;;3.42;2.85;;;19.00;63.70;;;;;;10429631;28;20080;-26
2023/02/13 05:17:55;;;;;;;4.07;3.05;;;19.00;63.70;;;;;;10444947;28;20079;-23
2023/02/13 05:33:49;;;;;;;4.35;3.30;;;19.00;63.60;;;;;;10425138;28;20628;-25
2023/02/13 05:38:52;;;;;;;4.53;3.55;;;19.00;63.60;;;;;;10411817;28;20514;-23
2023/02/13 05:43:54;;;;;;;4.13;2.90;;;19.00;63.30;;;;;;10418061;28;20125;-24
2023/02/13 05:48:56;;;;;;;7.90;3.20;;;19.10;62.70;;;;;;10420428;28;20053;-25
2023/02/13 05:53:59;;;;;;;6.07;3.33;;;19.20;62.50;;;;;;10413438;28;20135;-25
2023/02/13 05:59:01;;;;;;;5.18;3.22;;;19.20;62.30;;;;;;10412561;28;20494;-24
2023/02/13 06:04:03;;;;;;;6.22;3.28;;;19.20;62.20;;;;;;10413432;28;20069;-23
2023/02/13 06:09:07;;;;;;;6.15;3.20;;;19.20;62.10;;;;;;10432931;28;20132;-24
2023/02/13 06:14:09;;;;;;;6.28;3.00;;;19.30;61.90;;;;;;10421681;28;20107;-25
2023/02/13 06:19:11;;;;;;;3.33;2.90;;;19.30;61.90;;;;;;10435727;28;20052;-24
2023/02/13 06:24:14;;;;;;;4.25;2.90;;;19.40;61.70;;;;;;10414577;28;20446;-24
2023/02/13 06:29:16;;;;;;;4.60;2.70;;;19.40;61.80;;;;;;10417662;28;20037;-24
2023/02/13 06:34:18;;;;;;;3.75;3.05;;;19.50;61.70;;;;;;10422499;28;20136;-24
2023/02/13 06:39:21;;;;;;;4.53;2.63;;;19.40;61.60;;;;;;10418564;28;20103;-23
2023/02/13 06:44:23;;;;;;;3.17;2.72;;;19.50;61.60;;;;;;10416295;28;20411;-26
2023/02/13 06:49:24;;;;;;;6.03;3.03;;;19.50;62.20;;;;;;10424673;28;20084;-23
2023/02/13 06:54:28;;;;;;;4.47;2.97;;;19.50;61.50;;;;;;10435283;28;20078;-24
2023/02/13 06:59:29;;;;;;;4.70;2.72;;;19.50;61.70;;;;;;10427588;28;20052;-23
2023/02/13 07:14:49;;;;;;;4.53;3.13;;;19.60;61.20;;;;;;10512052;27;1532569;-24
2023/02/13 07:19:51;;;;;;;4.80;2.85;;;19.60;61.90;;;;;;10581076;28;20043;-23
2023/02/13 07:24:53;;;;;;;3.70;2.50;;;19.60;61.80;;;;;;10583575;28;20130;-25
2023/02/13 07:29:56;;;;;;;3.92;3.13;;;19.60;61.80;;;;;;10572800;28;20059;-24
2023/02/13 07:34:58;;;;;;;7.30;3.15;;;19.60;61.70;;;;;;10569559;28;20048;-23
2023/02/13 07:40:00;;;;;;;3.53;2.70;;;19.70;61.80;;;;;;10572141;28;20075;-26
2023/02/13 07:45:06;;;;;;;13.73;3.08;;;19.60;62.00;;;;;;10575485;28;20087;-24
2023/02/13 07:50:08;;;;;;;4.40;2.75;;;19.60;62.00;;;;;;10583117;28;20043;-23
2023/02/13 07:55:11;;;;;;;5.57;2.85;;;19.60;62.40;;;;;;10591617;28;20080;-23
2023/02/13 08:00:15;;;;;;;4.32;2.35;;;19.60;63.10;;;;;;10578144;28;20412;-24
2023/02/13 08:05:18;;;;;;;3.97;2.40;;;19.60;63.30;;;;;;10590706;28;20055;-24
2023/02/13 08:15:43;;;;;;;4.90;2.63;;;19.60;63.40;;;;;;10582282;28;20047;-27
2023/02/13 08:20:45;;;;;;;4.65;2.78;;;19.50;63.50;;;;;;10572433;28;20039;-24
2023/02/13 08:25:48;;;;;;;5.72;2.95;;;19.50;63.70;;;;;;10538103;28;20051;-24
2023/02/13 08:30:51;;;;;;;5.45;3.03;;;19.50;64.00;;;;;;10547235;28;20043;-24
2023/02/13 08:35:53;;;;;;;5.03;3.30;;;19.50;64.00;;;;;;10565276;28;20126;-24
2023/02/13 08:40:57;;;;;;;5.07;3.13;;;19.50;64.00;;;;;;10556016;28;20070;-23
2023/02/13 08:46:00;;;;;;;5.95;2.92;;;19.50;64.00;;;;;;10554253;28;20480;-24
2023/02/13 08:51:06;;;;;;;6.60;3.10;;;19.50;64.20;;;;;;10542038;28;20063;-26
2023/02/13 08:56:07;;;;;;;4.72;3.22;;;19.50;64.10;;;;;;10558439;28;20104;-25
2023/02/13 09:01:11;;;;;;;6.65;2.90;;;19.50;64.20;;;;;;10551315;28;20052;-24
2023/02/13 09:06:13;;;;;;;6.57;3.38;;;19.50;64.30;;;;;;10555310;28;20407;-24
2023/02/13 09:11:15;;;;;;;10.93;3.85;;;19.50;64.30;;;;;;10554011;28;20143;-23
2023/02/13 09:16:18;;;;;;;8.85;3.50;;;19.50;64.10;;;;;;10559794;28;20404;-24
2023/02/13 09:21:22;;;;;;;7.72;3.35;;;19.50;64.20;;;;;;10545834;28;20499;-25
2023/02/13 09:26:24;;;;;;;7.40;3.70;;;19.50;64.50;;;;;;10557222;28;20192;-25
2023/02/13 09:31:28;;;;;;;;;;;19.60;64.50;;;;;;10555246;28;20112;-24
2023/02/13 09:36:29;;;;;;;4.68;3.58;;;19.60;64.50;;;;;;10552021;28;19924;-25
2023/02/13 09:41:36;;;;;;;5.22;3.45;;;19.50;64.50;;;;;;10556415;28;20079;-24
2023/02/13 09:46:40;;;;;;;6.25;4.43;;;19.60;64.50;;;;;;10557425;28;20059;-24
2023/02/13 09:51:44;;;;;;;5.93;3.70;;;19.50;64.50;;;;;;10558808;28;20082;-24
2023/02/13 09:56:53;;;;;;;8.60;4.18;;;19.60;64.50;;;;;;10554637;28;20096;-23
2023/02/13 10:02:02;;;;;;;7.65;4.30;;;19.50;64.30;;;;;;10556082;28;20062;-23
2023/02/13 10:07:21;;;;;;;6.40;3.72;;;19.60;64.40;;;;;;10555053;28;20069;-24
2023/02/13 10:12:48;;;;;;;6.93;4.22;;;19.60;64.30;;;;;;10551459;28;20555;-24
2023/02/13 10:17:56;;;;;;;4.90;4.07;;;19.60;64.20;;;;;;10540872;28;20493;-24
2023/02/13 10:23:05;;;;;;;6.50;4.05;;;19.60;64.60;;;;;;10544637;28;20219;-27
2023/02/13 10:28:13;;;;;;;6.30;4.32;;;19.60;64.60;;;;;;10536930;28;20130;-25
2023/02/13 10:33:21;;;;;;;6.88;3.90;;;19.60;64.60;;;;;;10553803;28;20109;-23
2023/02/13 10:38:23;;;;;;;6.07;4.30;;;19.60;64.60;;;;;;10564017;28;20040;-24
2023/02/13 10:43:29;;;;;;;10.63;4.10;;;19.60;64.40;;;;;;10560150;28;20132;-23
2023/02/13 10:48:56;;;;;;;7.85;5.13;;;19.60;64.10;;;;;;10561281;28;20046;-26
2023/02/13 10:54:19;;;;;;;5.78;4.18;;;19.60;64.00;;;;;;10554997;28;20072;-24
2023/02/13 10:59:41;;;;;;;11.75;4.93;;;19.60;63.90;;;;;;10560724;28;20503;-25
2023/02/13 11:04:45;;;;;;;5.82;4.32;;;19.60;63.80;;;;;;10547520;28;20147;-24
2023/02/13 11:09:50;;;;;;;8.18;4.75;;;19.70;63.70;;;;;;10554304;28;20166;-24
2023/02/13 11:14:57;;;;;;;6.13;4.35;;;19.70;63.60;;;;;;10536226;28;20147;-24
2023/02/13 11:20:03;;;;;;;5.60;4.82;;;19.70;63.50;;;;;;10560904;28;20120;-24
2023/02/13 11:25:16;;;;;;;7.03;4.18;;;19.70;63.30;;;;;;10542784;28;20185;-25
2023/02/13 11:30:32;;;;;;;8.05;4.53;;;19.70;63.20;;;;;;10549133;28;20502;-24
2023/02/13 11:35:36;;;;;;;9.15;4.30;;;19.70;63.00;;;;;;10553230;28;20047;-24
2023/02/13 11:40:39;;;;;;;9.35;4.80;;;19.70;63.00;;;;;;10554076;28;20788;-24
2023/02/13 11:45:41;;;;;;;6.47;4.25;;;19.70;62.80;;;;;;10556209;28;20063;-24
2023/02/13 11:50:54;;;;;;;6.70;4.78;;;19.70;62.80;;;;;;10559574;28;20071;-25
2023/02/13 11:56:06;;;;;;;6.45;4.28;;;19.70;62.70;;;;;;10553611;28;20120;-23
2023/02/13 12:01:26;;;;;;;5.97;4.45;;;19.70;62.60;;;;;;10557713;28;20044;-25
2023/02/13 12:06:38;;;;;;;7.55;4.55;;;19.70;62.70;;;;;;10558245;28;20044;-25
2023/02/13 12:11:44;;;;;;;6.30;4.63;;;19.70;62.50;;;;;;10551886;28;20094;-24
2023/02/13 12:16:50;;;;;;;6.50;4.45;;;19.70;62.50;;;;;;10557534;28;20051;-25
2023/02/13 12:22:09;;;;;;;5.18;4.35;;;19.80;62.60;;;;;;10551542;28;20039;-25
2023/02/13 12:27:20;;;;;;;7.10;4.13;;;19.70;62.60;;;;;;10561707;28;20123;-26
2023/02/13 12:32:33;;;;;;;7.72;4.68;;;19.70;62.40;;;;;;10546518;28;20113;-24
2023/02/13 12:37:47;;;;;;;7.25;4.50;;;19.70;62.30;;;;;;10552364;28;20434;-23
2023/02/13 12:43:00;;;;;;;4.75;3.55;;;19.70;62.30;;;;;;10545540;28;20116;-24
2023/02/13 12:48:18;;;;;;;8.15;4.50;;;19.70;62.30;;;;;;10553541;28;20072;-24
2023/02/13 12:54:06;;;;;;;5.32;3.97;;;19.70;62.20;;;;;;10542453;28;20058;-24
2023/02/13 12:59:15;;;;;;;6.25;4.30;;;19.70;62.10;;;;;;10551564;28;20044;-25
2023/02/13 13:04:23;;;;;;;7.00;3.70;;;19.80;62.10;;;;;;10554478;28;20069;-24
2023/02/13 13:09:50;;;;;;;5.95;3.90;;;19.80;61.80;;;;;;10557974;28;20496;-23
2023/02/13 13:15:01;;;;;;;7.45;3.88;;;19.80;61.80;;;;;;10537948;28;20048;-24
2023/02/13 13:20:41;;;;;;;6.10;3.75;;;19.80;61.80;;;;;;10552455;28;20075;-24
2023/02/13 13:25:51;;;;;;;6.50;3.90;;;19.80;61.70;;;;;;10557950;28;20048;-25
2023/02/13 13:30:54;;;;;;;5.40;4.07;;;19.90;62.30;;;;;;10563820;28;20051;-24
2023/02/13 13:36:04;;;;;;;10.30;6.15;;;19.60;63.70;;;;;;10555103;28;20074;-23
2023/02/13 13:41:14;;;;;;;7.35;4.50;;;19.80;63.10;;;;;;10555009;28;20055;-24
2023/02/13 13:46:22;;;;;;;6.50;3.55;;;19.90;63.20;;;;;;10549159;28;20639;-24
2023/02/13 13:51:25;;;;;;;7.50;4.28;;;20.00;63.10;;;;;;10551056;28;20531;-24
2023/02/13 13:57:04;;;;;;;7.05;3.60;;;20.00;62.70;;;;;;10557816;28;20761;-24
2023/02/13 14:02:35;;;;;;;5.35;3.70;;;20.10;62.40;;;;;;10559261;28;20040;-24
2023/02/13 14:07:40;;;;;;;6.95;4.00;;;20.20;62.30;;;;;;10555494;28;20047;-24
2023/02/13 14:12:48;;;;;;;9.40;3.80;;;20.20;62.30;;;;;;10548308;28;20514;-24
2023/02/13 14:17:54;;;;;;;6.03;3.35;;;20.30;62.30;;;;;;10553541;28;20547;-28
2023/02/13 14:22:56;;;;;;;4.72;3.60;;;20.30;62.20;;;;;;10547124;28;20072;-24
2023/02/13 14:28:00;;;;;;;;;;;20.40;62.00;;;;;;10549069;28;20048;-24
2023/02/13 14:33:06;;;;;;;4.75;3.58;;;20.40;61.80;;;;;;10540014;28;20416;-23
2023/02/13 14:38:23;;;;;;;6.50;3.72;;;20.30;62.10;;;;;;10555812;28;20085;-24
2023/02/13 14:43:33;;;;;;;10.00;3.20;;;20.50;61.50;;;;;;10553432;28;20040;-25
2023/02/13 14:48:44;;;;;;;7.30;3.55;;;20.60;61.70;;;;;;10560496;28;20050;-24
2023/02/13 14:53:51;;;;;;;6.90;3.08;;;20.60;61.90;;;;;;10552074;28;20418;-24
2023/02/13 14:59:02;;;;;;;3.67;2.90;;;20.60;61.70;;;;;;10538597;28;20059;-24
2023/02/13 15:04:12;;;;;;;5.85;2.70;;;20.70;61.60;;;;;;10562148;28;20717;-23
2023/02/13 15:09:31;;;;;;;4.60;2.72;;;20.90;61.30;;;;;;10551627;28;20150;-26
2023/02/13 15:14:35;;;;;;;5.25;2.63;;;21.00;61.00;;;;;;10536877;28;20056;-25
2023/02/13 15:19:43;;;;;;;3.78;2.70;;;21.10;61.00;;;;;;10535110;28;20048;-24
2023/02/13 15:24:46;;;;;;;4.35;2.72;;;21.20;60.90;;;;;;10534275;28;20054;-24
2023/02/13 15:29:58;;;;;;;6.95;3.05;;;21.30;60.70;;;;;;10544663;28;20221;-24
2023/02/13 15:35:00;;;;;;;7.32;3.05;;;21.40;60.30;;;;;;10554941;28;20052;-25
2023/02/13 15:40:16;;;;;;;7.20;3.22;;;21.60;60.30;;;;;;10555333;28;20109;-24
2023/02/13 15:45:22;;;;;;;5.32;2.63;;;21.60;59.00;;;;;;10539767;28;20055;-24
2023/02/13 15:50:29;;;;;;;8.27;2.88;;;21.70;59.90;;;;;;10549689;28;20126;-26
2023/02/13 15:55:35;;;;;;;4.68;2.85;;;21.70;59.90;;;;;;10539080;28;20047;-25
2023/02/13 16:00:42;;;;;;;3.28;2.38;;;21.80;59.80;;;;;;10557302;28;20516;-24
2023/02/13 16:05:46;;;;;;;7.03;2.40;;;21.80;59.60;;;;;;10553709;28;20479;-29
2023/02/13 16:10:48;;;;;;;3.75;2.38;;;21.90;59.60;;;;;;10544415;28;20044;-24
2023/02/13 16:15:51;;;;;;;5.25;2.35;;;21.90;59.50;;;;;;10559655;28;20134;-25
2023/02/13 16:20:55;;;;;;;3.75;2.50;;;22.00;59.50;;;;;;10556203;28;20068;-23
2023/02/13 16:26:03;;;;;;;4.18;2.10;;;22.00;59.50;;;;;;10558127;28;20399;-24
2023/02/13 16:31:07;;;;;;;8.68;2.45;;;22.00;59.30;;;;;;10557091;28;20170;-24
2023/02/13 16:36:19;;;;;;;2.47;2.10;;;22.10;59.40;;;;;;10561153;28;20059;-24
2023/02/13 16:41:30;;;;;;;6.07;2.20;;;22.10;59.30;;;;;;10555088;28;20048;-24
2023/02/13 16:46:36;;;;;;;4.45;2.10;;;22.10;59.20;;;;;;10564779;28;20055;-23
2023/02/13 16:51:41;;;;;;;7.22;2.40;;;22.10;58.90;;;;;;10552695;28;20052;-24
2023/02/13 16:56:46;;;;;;;3.85;2.40;;;22.10;58.50;;;;;;10552476;28;20040;-26
2023/02/13 17:02:17;;;;;;;4.43;2.10;;;22.10;59.10;;;;;;10556165;28;20080;-24
2023/02/13 17:07:22;;;;;;;2.65;2.20;;;22.00;58.50;;;;;;10555501;28;20113;-24
2023/02/13 17:12:25;;;;;;;5.00;2.90;;;22.00;58.70;;;;;;10556648;28;20134;-24
2023/02/13 17:17:30;;;;;;;9.30;2.75;;;22.00;59.80;;;;;;10544440;28;20054;-25
2023/02/13 17:22:36;;;;;;;6.82;3.45;;;21.90;60.20;;;;;;10560709;28;20104;-25
2023/02/13 17:27:38;;;;;;;9.68;2.75;;;21.90;60.10;;;;;;10559885;28;20488;-24
2023/02/13 17:32:41;;;;;;;5.63;2.55;;;21.90;60.30;;;;;;10537519;28;20086;-24
2023/02/13 17:37:44;;;;;;;8.93;2.75;;;21.90;60.50;;;;;;10547714;28;20514;-24
2023/02/13 17:42:47;;;;;;;7.20;2.60;;;21.80;60.70;;;;;;10552528;28;20047;-24
2023/02/13 17:47:51;;;;;;;16.63;2.78;;;21.80;61.00;;;;;;10558368;28;20513;-24
2023/02/13 17:52:53;;;;;;;7.68;2.40;;;21.80;61.50;;;;;;10541813;28;20135;-25
2023/02/13 17:57:56;;;;;;;10.45;3.88;;;21.70;61.90;;;;;;10544380;28;20140;-24
2023/02/13 18:03:00;;;;;;;10.52;4.28;;;21.60;62.60;;;;;;10550254;28;20473;-24
2023/02/13 18:08:02;;;;;;;9.05;4.35;;;21.50;62.90;;;;;;10555478;28;20101;-24
2023/02/13 18:13:05;;;;;;;12.20;4.53;;;21.40;63.30;;;;;;10555884;28;20192;-27
2023/02/13 18:18:08;;;;;;;16.10;6.45;;;21.40;63.70;;;;;;10548816;28;20052;-25
2023/02/13 18:23:12;;;;;;;11.10;4.90;;;21.50;64.20;;;;;;10547628;28;20055;-24
2023/02/13 18:28:14;;;;;;;9.80;5.07;;;21.40;64.40;;;;;;10558452;28;20091;-25
2023/02/13 18:33:17;;;;;;;9.98;5.00;;;21.30;63.80;;;;;;10547622;28;20062;-25
2023/02/13 18:38:19;;;;;;;15.60;6.85;;;21.30;64.10;;;;;;10547282;28;20127;-25
2023/02/13 18:43:21;;;;;;;14.05;6.75;;;21.20;64.50;;;;;;10557849;28;20047;-26
2023/02/13 18:48:24;;;;;;;;;;;21.10;65.10;;;;;;10549674;28;20484;-25
2023/02/13 18:53:27;;;;;;;19.52;8.20;;;21.10;65.10;;;;;;10556609;28;20014;-25
2023/02/13 18:58:29;;;;;;;16.17;7.93;;;21.00;65.30;;;;;;10545959;28;20052;-24
2023/02/13 19:03:32;;;;;;;;;;;21.00;65.80;;;;;;10552929;28;20048;-24
2023/02/13 19:08:34;;;;;;;12.18;5.55;;;21.00;65.50;;;;;;10548126;28;20010;-25
2023/02/13 19:13:36;;;;;;;;;;;21.20;65.10;;;;;;10547712;28;20089;-24
2023/02/13 19:18:40;;;;;;;10.83;4.23;;;21.20;65.10;;;;;;10547932;28;19924;-25
2023/02/13 19:23:42;;;;;;;9.02;4.05;;;21.10;65.30;;;;;;10553037;28;20474;-26
2023/02/13 19:28:44;;;;;;;7.78;3.78;;;21.10;65.40;;;;;;10550205;28;20071;-24
2023/02/13 19:33:48;;;;;;;7.38;3.53;;;21.10;65.40;;;;;;10526951;28;20047;-24
2023/02/13 19:38:54;;;;;;;5.68;3.42;;;21.10;65.60;;;;;;10542379;28;20453;-24
2023/02/13 19:43:57;;;;;;;7.97;3.55;;;21.10;65.60;;;;;;10546091;28;20048;-24
2023/02/13 19:49:01;;;;;;;7.72;3.40;;;21.00;65.70;;;;;;10550257;28;20131;-24
2023/02/13 19:54:05;;;;;;;7.82;4.70;;;21.00;65.80;;;;;;10550181;28;20056;-25
2023/02/13 19:59:10;;;;;;;7.95;4.00;;;21.00;66.00;;;;;;10552448;28;20087;-23
2023/02/13 20:04:14;;;;;;;8.05;4.28;;;21.00;66.10;;;;;;10547766;28;20051;-25
2023/02/13 20:09:15;;;;;;;9.05;3.88;;;20.90;66.80;;;;;;10554161;28;20063;-25
2023/02/13 20:14:18;;;;;;;9.93;4.20;;;21.00;65.90;;;;;;10543674;28;20724;-25
2023/02/13 20:19:21;;;;;;;;;;;20.90;65.80;;;;;;10536080;28;20127;-23
2023/02/13 20:24:23;;;;;;;9.15;3.75;;;20.90;65.50;;;;;;10552024;28;20348;-25
2023/02/13 20:29:25;;;;;;;7.90;3.72;;;20.90;65.20;;;;;;10552913;28;20497;-25
2023/02/13 20:34:28;;;;;;;12.65;4.22;;;20.80;65.10;;;;;;10551273;28;20071;-24
2023/02/13 20:39:31;;;;;;;15.68;4.93;;;20.80;65.20;;;;;;10551638;28;20100;-23
2023/02/13 20:44:33;;;;;;;9.18;4.07;;;20.80;65.60;;;;;;10561755;28;20051;-25
2023/02/13 20:49:36;;;;;;;12.43;3.88;;;20.80;65.00;;;;;;10551766;28;20082;-26
2023/02/13 20:54:38;;;;;;;17.30;3.95;;;20.70;64.70;;;;;;10558663;28;20142;-25
2023/02/13 20:59:40;;;;;;;10.82;4.85;;;20.70;64.70;;;;;;10556208;28;20051;-26
2023/02/13 21:04:43;;;;;;;13.63;4.35;;;20.70;64.60;;;;;;10545047;28;20124;-26
2023/02/13 21:09:45;;;;;;;11.70;4.97;;;20.70;64.60;;;;;;10547129;28;20131;-25
2023/02/13 21:14:47;;;;;;;11.93;4.85;;;20.70;64.70;;;;;;10551504;28;20068;-24
2023/02/13 21:19:50;;;;;;;12.20;4.30;;;20.60;64.40;;;;;;10556599;28;20097;-25
2023/02/13 21:24:52;;;;;;;13.75;4.50;;;20.60;64.40;;;;;;10549252;28;20131;-24
2023/02/13 21:29:54;;;;;;;13.50;5.32;;;20.50;64.20;;;;;;10542669;28;20067;-26
2023/02/13 21:34:57;;;;;;;10.05;4.50;;;20.50;64.10;;;;;;10542987;28;20048;-26
2023/02/13 21:39:59;;;;;;;14.25;5.05;;;20.50;64.10;;;;;;10551019;28;20135;-24
2023/02/13 21:45:01;;;;;;;13.45;5.68;;;20.50;64.10;;;;;;10560334;28;20077;-25
2023/02/13 21:50:06;;;;;;;11.65;5.03;;;20.40;64.30;;;;;;10552512;28;20492;-25
2023/02/13 21:55:08;;;;;;;14.35;5.60;;;20.40;64.60;;;;;;10541748;28;20077;-24
2023/02/13 22:00:11;;;;;;;16.40;5.40;;;20.30;64.50;;;;;;10559359;28;20047;-23
2023/02/13 22:05:14;;;;;;;10.23;4.72;;;20.30;64.60;;;;;;10550007;28;20044;-25
2023/02/13 22:10:16;;;;;;;11.48;4.32;;;20.30;64.50;;;;;;10549380;28;20051;-24
2023/02/13 22:15:18;;;;;;;11.57;4.70;;;20.20;64.70;;;;;;10560474;28;20139;-26
2023/02/13 22:20:22;;;;;;;16.77;5.53;;;20.20;64.50;;;;;;10556690;28;20046;-26
2023/02/13 22:25:23;;;;;;;10.07;4.72;;;20.20;64.60;;;;;;10560538;28;20074;-25
2023/02/13 22:30:25;;;;;;;17.73;5.88;;;20.10;64.90;;;;;;10543669;28;20131;-25
2023/02/13 22:35:28;;;;;;;16.98;4.97;;;20.10;64.80;;;;;;10560763;28;20058;-24
2023/02/13 22:40:31;;;;;;;11.93;5.38;;;20.00;64.70;;;;;;10559819;28;20140;-24
2023/02/13 22:45:34;;;;;;;;;;;20.00;64.90;;;;;;10536813;28;20500;-24
2023/02/13 22:50:37;;;;;;;12.95;4.35;;;19.90;65.10;;;;;;10552505;28;20014;-24
2023/02/13 22:55:39;;;;;;;14.02;4.82;;;20.00;64.70;;;;;;10552672;28;20060;-26
2023/02/13 23:00:41;;;;;;;10.63;4.57;;;19.90;64.70;;;;;;10560231;28;20156;-24
2023/02/13 23:05:44;;;;;;;11.60;4.95;;;19.80;64.70;;;;;;10546200;28;20049;-25
2023/02/13 23:12:34;;;;;;;10.80;4.78;;;19.80;64.70;;;;;;10562297;28;20074;-24
2023/02/13 23:16:12;;;;;;;9.25;4.55;;;19.80;64.90;;;;;;10556668;28;20063;-23
2023/02/13 23:21:16;;;;;;;8.88;4.43;;;19.70;64.90;;;;;;10561092;28;20137;-24
2023/02/13 23:26:18;;;;;;;8.45;4.32;;;19.70;65.00;;;;;;10555299;28;20083;-24
2023/02/13 23:31:19;;;;;;;11.32;4.20;;;19.70;64.90;;;;;;10537810;28;20491;-24
2023/02/13 23:36:23;;;;;;;7.82;4.75;;;19.70;64.80;;;;;;10532296;28;20052;-24
2023/02/13 23:41:24;;;;;;;11.35;4.30;;;19.60;65.10;;;;;;10532189;28;20557;-26
2023/02/13 23:46:26;;;;;;;7.78;4.15;;;19.60;65.10;;;;;;10537048;28;20665;-25
2023/02/13 23:51:30;;;;;;;9.40;4.90;;;19.60;64.90;;;;;;10548114;28;20097;-26
2023/02/13 23:56:32;;;;;;;8.15;4.32;;;19.60;65.00;;;;;;10564590;28;20542;-29
